sensor_id;sensor_type;location;lat;lon;timestamp;P1;durP1;ratioP1;P2;durP2;ratioP2
39214;SDS011;24932;51.746;14.334;2023-08-06T00:00:40;20.27;;;12.95;;
39214;SDS011;24932;51.746;14.334;2023-08-06T00:04:41;27.8;;;14.18;;
39214;SDS011;24932;51.746;14.334;2023-08-06T00:08:41;31.33;;;13.82;;
39214;SDS011;24932;51.746;14.334;2023-08-06T00:12:40;28.08;;;14.18;;
39214;SDS011;24932;51.746;14.334;2023-08-06T00:16:42;21.15;;;13.15;;
39214;SDS011;24932;51.746;14.334;2023-08-06T00:20:40;17.85;;;12.2;;
39214;SDS011;24932;51.746;14.334;2023-08-06T00:24:40;19.1;;;13.15;;
39214;SDS011;24932;51.746;14.334;2023-08-06T00:28:40;23.42;;;12.07;;
39214;SDS011;24932;51.746;14.334;2023-08-06T00:32:40;26.95;;;13.88;;
39214;SDS011;24932;51.746;14.334;2023-08-06T00:36:40;19.33;;;11.6;;
39214;SDS011;24932;51.746;14.334;2023-08-06T00:40:40;14.77;;;10.82;;
39214;SDS011;24932;51.746;14.334;2023-08-06T00:44:40;12.25;;;8.85;;
39214;SDS011;24932;51.746;14.334;2023-08-06T00:48:40;15.2;;;9.13;;
39214;SDS011;24932;51.746;14.334;2023-08-06T00:52:40;14.27;;;9.93;;
39214;SDS011;24932;51.746;14.334;2023-08-06T00:56:40;20.52;;;9.1;;
39214;SDS011;24932;51.746;14.334;2023-08-06T01:00:40;17.55;;;9.88;;
39214;SDS011;24932;51.746;14.334;2023-08-06T01:04:41;15.4;;;9.6;;
39214;SDS011;24932;51.746;14.334;2023-08-06T01:08:41;15.77;;;9.4;;
39214;SDS011;24932;51.746;14.334;2023-08-06T01:12:41;16.65;;;8.7;;
39214;SDS011;24932;51.746;14.334;2023-08-06T01:16:40;17.48;;;8.57;;
39214;SDS011;24932;51.746;14.334;2023-08-06T01:20:41;13.05;;;8.32;;
39214;SDS011;24932;51.746;14.334;2023-08-06T01:24:40;16.87;;;8.7;;
39214;SDS011;24932;51.746;14.334;2023-08-06T01:28:42;15.77;;;8.2;;
39214;SDS011;24932;51.746;14.334;2023-08-06T01:32:42;12.02;;;8.38;;
39214;SDS011;24932;51.746;14.334;2023-08-06T01:36:40;21.17;;;9.45;;
39214;SDS011;24932;51.746;14.334;2023-08-06T01:40:40;12.37;;;8.18;;
39214;SDS011;24932;51.746;14.334;2023-08-06T01:44:41;17.67;;;8.02;;
39214;SDS011;24932;51.746;14.334;2023-08-06T01:48:41;16.42;;;9.05;;
39214;SDS011;24932;51.746;14.334;2023-08-06T01:52:41;21.08;;;9.63;;
39214;SDS011;24932;51.746;14.334;2023-08-06T01:56:40;20.98;;;10.8;;
39214;SDS011;24932;51.746;14.334;2023-08-06T02:00:40;19.5;;;10.57;;
39214;SDS011;24932;51.746;14.334;2023-08-06T02:04:40;18.08;;;9.13;;
39214;SDS011;24932;51.746;14.334;2023-08-06T02:08:40;15.9;;;8.9;;
39214;SDS011;24932;51.746;14.334;2023-08-06T02:12:40;17.5;;;8.75;;
39214;SDS011;24932;51.746;14.334;2023-08-06T02:16:41;20.65;;;8.82;;
39214;SDS011;24932;51.746;14.334;2023-08-06T02:20:41;16.27;;;9.25;;
39214;SDS011;24932;51.746;14.334;2023-08-06T02:24:40;15.6;;;9.2;;
39214;SDS011;24932;51.746;14.334;2023-08-06T02:28:39;17.6;;;8.55;;
39214;SDS011;24932;51.746;14.334;2023-08-06T02:32:41;17.65;;;8.45;;
39214;SDS011;24932;51.746;14.334;2023-08-06T02:36:40;13.77;;;7.65;;
39214;SDS011;24932;51.746;14.334;2023-08-06T02:40:44;15.18;;;8.45;;
39214;SDS011;24932;51.746;14.334;2023-08-06T02:44:40;16.3;;;8.55;;
39214;SDS011;24932;51.746;14.334;2023-08-06T02:48:40;17.48;;;8.88;;
39214;SDS011;24932;51.746;14.334;2023-08-06T02:52:40;17.8;;;8.9;;
39214;SDS011;24932;51.746;14.334;2023-08-06T02:56:42;16.02;;;7.95;;
39214;SDS011;24932;51.746;14.334;2023-08-06T03:00:40;13.62;;;6.8;;
39214;SDS011;24932;51.746;14.334;2023-08-06T03:04:40;14.32;;;7.8;;
39214;SDS011;24932;51.746;14.334;2023-08-06T03:08:40;13.13;;;7.28;;
39214;SDS011;24932;51.746;14.334;2023-08-06T03:12:40;17.0;;;8.2;;
39214;SDS011;24932;51.746;14.334;2023-08-06T03:16:40;12.82;;;7.05;;
39214;SDS011;24932;51.746;14.334;2023-08-06T03:20:40;15.32;;;7.03;;
39214;SDS011;24932;51.746;14.334;2023-08-06T03:24:40;14.68;;;7.65;;
39214;SDS011;24932;51.746;14.334;2023-08-06T03:28:40;15.5;;;8.07;;
39214;SDS011;24932;51.746;14.334;2023-08-06T03:32:40;13.13;;;7.72;;
39214;SDS011;24932;51.746;14.334;2023-08-06T03:36:40;18.45;;;8.93;;
39214;SDS011;24932;51.746;14.334;2023-08-06T03:40:40;14.18;;;8.98;;
39214;SDS011;24932;51.746;14.334;2023-08-06T03:44:40;20.55;;;9.57;;
39214;SDS011;24932;51.746;14.334;2023-08-06T03:48:41;15.85;;;9.23;;
39214;SDS011;24932;51.746;14.334;2023-08-06T03:52:40;15.1;;;9.55;;
39214;SDS011;24932;51.746;14.334;2023-08-06T03:56:40;14.7;;;8.5;;
39214;SDS011;24932;51.746;14.334;2023-08-06T04:00:41;10.55;;;7.95;;
39214;SDS011;24932;51.746;14.334;2023-08-06T04:04:40;10.18;;;8.1;;
39214;SDS011;24932;51.746;14.334;2023-08-06T04:08:40;13.02;;;8.45;;
39214;SDS011;24932;51.746;14.334;2023-08-06T04:12:40;13.02;;;9.52;;
39214;SDS011;24932;51.746;14.334;2023-08-06T04:16:39;14.27;;;8.48;;
39214;SDS011;24932;51.746;14.334;2023-08-06T04:20:42;11.5;;;8.15;;
39214;SDS011;24932;51.746;14.334;2023-08-06T04:24:39;12.43;;;8.5;;
39214;SDS011;24932;51.746;14.334;2023-08-06T04:28:40;17.4;;;8.25;;
39214;SDS011;24932;51.746;14.334;2023-08-06T04:32:39;11.0;;;8.15;;
39214;SDS011;24932;51.746;14.334;2023-08-06T04:36:41;9.75;;;7.93;;
39214;SDS011;24932;51.746;14.334;2023-08-06T04:40:41;13.6;;;8.73;;
39214;SDS011;24932;51.746;14.334;2023-08-06T04:44:40;11.23;;;8.02;;
39214;SDS011;24932;51.746;14.334;2023-08-06T04:48:41;11.15;;;8.38;;
39214;SDS011;24932;51.746;14.334;2023-08-06T04:52:40;11.25;;;7.87;;
39214;SDS011;24932;51.746;14.334;2023-08-06T04:56:40;9.77;;;7.3;;
39214;SDS011;24932;51.746;14.334;2023-08-06T05:00:40;11.88;;;8.07;;
39214;SDS011;24932;51.746;14.334;2023-08-06T05:04:41;9.75;;;6.68;;
39214;SDS011;24932;51.746;14.334;2023-08-06T05:08:40;9.52;;;7.6;;
39214;SDS011;24932;51.746;14.334;2023-08-06T05:12:40;11.95;;;8.1;;
39214;SDS011;24932;51.746;14.334;2023-08-06T05:16:41;11.63;;;8.0;;
39214;SDS011;24932;51.746;14.334;2023-08-06T05:20:41;13.32;;;8.07;;
39214;SDS011;24932;51.746;14.334;2023-08-06T05:24:41;9.8;;;7.28;;
39214;SDS011;24932;51.746;14.334;2023-08-06T05:28:40;9.7;;;6.57;;
39214;SDS011;24932;51.746;14.334;2023-08-06T05:32:41;8.3;;;6.4;;
39214;SDS011;24932;51.746;14.334;2023-08-06T05:36:40;9.77;;;5.95;;
39214;SDS011;24932;51.746;14.334;2023-08-06T05:40:40;7.22;;;6.43;;
39214;SDS011;24932;51.746;14.334;2023-08-06T05:44:40;10.45;;;6.87;;
39214;SDS011;24932;51.746;14.334;2023-08-06T05:48:40;7.97;;;5.78;;
39214;SDS011;24932;51.746;14.334;2023-08-06T05:52:40;8.27;;;5.82;;
39214;SDS011;24932;51.746;14.334;2023-08-06T05:56:40;6.2;;;5.2;;
39214;SDS011;24932;51.746;14.334;2023-08-06T06:00:40;6.87;;;4.82;;
39214;SDS011;24932;51.746;14.334;2023-08-06T06:04:40;8.52;;;5.25;;
39214;SDS011;24932;51.746;14.334;2023-08-06T06:08:40;5.93;;;4.9;;
39214;SDS011;24932;51.746;14.334;2023-08-06T06:12:40;7.0;;;4.72;;
39214;SDS011;24932;51.746;14.334;2023-08-06T06:16:40;5.9;;;4.37;;
39214;SDS011;24932;51.746;14.334;2023-08-06T06:20:40;9.13;;;4.4;;
39214;SDS011;24932;51.746;14.334;2023-08-06T06:24:40;6.4;;;4.97;;
39214;SDS011;24932;51.746;14.334;2023-08-06T06:28:41;8.75;;;4.55;;
39214;SDS011;24932;51.746;14.334;2023-08-06T06:32:41;4.4;;;4.0;;
39214;SDS011;24932;51.746;14.334;2023-08-06T06:36:40;8.9;;;4.93;;
39214;SDS011;24932;51.746;14.334;2023-08-06T06:40:40;4.25;;;3.85;;
39214;SDS011;24932;51.746;14.334;2023-08-06T06:44:40;4.57;;;4.18;;
39214;SDS011;24932;51.746;14.334;2023-08-06T06:48:40;5.05;;;3.87;;
39214;SDS011;24932;51.746;14.334;2023-08-06T06:52:40;9.27;;;4.55;;
39214;SDS011;24932;51.746;14.334;2023-08-06T06:56:41;8.1;;;4.37;;
39214;SDS011;24932;51.746;14.334;2023-08-06T07:00:40;5.03;;;4.28;;
39214;SDS011;24932;51.746;14.334;2023-08-06T07:04:40;5.55;;;4.68;;
39214;SDS011;24932;51.746;14.334;2023-08-06T07:08:40;6.15;;;4.5;;
39214;SDS011;24932;51.746;14.334;2023-08-06T07:12:40;5.1;;;4.57;;
39214;SDS011;24932;51.746;14.334;2023-08-06T07:16:40;6.15;;;4.7;;
39214;SDS011;24932;51.746;14.334;2023-08-06T07:20:41;4.53;;;4.05;;
39214;SDS011;24932;51.746;14.334;2023-08-06T07:24:39;5.85;;;4.28;;
39214;SDS011;24932;51.746;14.334;2023-08-06T07:28:41;6.0;;;4.53;;
39214;SDS011;24932;51.746;14.334;2023-08-06T07:32:41;6.03;;;4.68;;
39214;SDS011;24932;51.746;14.334;2023-08-06T07:36:40;5.15;;;4.62;;
39214;SDS011;24932;51.746;14.334;2023-08-06T07:40:42;5.62;;;4.35;;
39214;SDS011;24932;51.746;14.334;2023-08-06T07:44:41;5.43;;;4.78;;
39214;SDS011;24932;51.746;14.334;2023-08-06T07:48:40;5.07;;;4.25;;
39214;SDS011;24932;51.746;14.334;2023-08-06T07:52:40;5.0;;;4.53;;
39214;SDS011;24932;51.746;14.334;2023-08-06T07:56:40;9.43;;;4.43;;
39214;SDS011;24932;51.746;14.334;2023-08-06T08:00:40;4.15;;;3.5;;
39214;SDS011;24932;51.746;14.334;2023-08-06T08:04:40;4.15;;;3.37;;
39214;SDS011;24932;51.746;14.334;2023-08-06T08:08:40;4.1;;;3.7;;
39214;SDS011;24932;51.746;14.334;2023-08-06T08:12:40;5.25;;;4.53;;
39214;SDS011;24932;51.746;14.334;2023-08-06T08:16:41;6.25;;;4.45;;
39214;SDS011;24932;51.746;14.334;2023-08-06T08:20:40;5.45;;;4.15;;
39214;SDS011;24932;51.746;14.334;2023-08-06T08:24:40;4.35;;;4.0;;
39214;SDS011;24932;51.746;14.334;2023-08-06T08:28:40;7.2;;;4.3;;
39214;SDS011;24932;51.746;14.334;2023-08-06T08:32:40;4.62;;;3.9;;
39214;SDS011;24932;51.746;14.334;2023-08-06T08:36:41;6.07;;;5.03;;
39214;SDS011;24932;51.746;14.334;2023-08-06T08:40:41;5.5;;;5.0;;
39214;SDS011;24932;51.746;14.334;2023-08-06T08:44:40;6.32;;;5.2;;
39214;SDS011;24932;51.746;14.334;2023-08-06T08:48:40;7.43;;;5.43;;
39214;SDS011;24932;51.746;14.334;2023-08-06T08:52:41;5.9;;;5.32;;
39214;SDS011;24932;51.746;14.334;2023-08-06T08:56:40;7.37;;;6.12;;
39214;SDS011;24932;51.746;14.334;2023-08-06T09:00:40;6.97;;;6.25;;
39214;SDS011;24932;51.746;14.334;2023-08-06T09:04:40;8.68;;;6.87;;
39214;SDS011;24932;51.746;14.334;2023-08-06T09:08:41;8.5;;;6.57;;
39214;SDS011;24932;51.746;14.334;2023-08-06T09:12:41;8.0;;;6.55;;
39214;SDS011;24932;51.746;14.334;2023-08-06T09:16:41;8.38;;;6.43;;
39214;SDS011;24932;51.746;14.334;2023-08-06T09:20:40;8.48;;;7.57;;
39214;SDS011;24932;51.746;14.334;2023-08-06T09:24:41;13.15;;;7.87;;
39214;SDS011;24932;51.746;14.334;2023-08-06T09:28:40;7.78;;;6.4;;
39214;SDS011;24932;51.746;14.334;2023-08-06T09:32:45;11.48;;;7.2;;
39214;SDS011;24932;51.746;14.334;2023-08-06T09:36:41;11.32;;;7.72;;
39214;SDS011;24932;51.746;14.334;2023-08-06T09:40:40;9.27;;;6.93;;
39214;SDS011;24932;51.746;14.334;2023-08-06T09:44:40;8.57;;;7.18;;
39214;SDS011;24932;51.746;14.334;2023-08-06T09:48:41;9.73;;;7.22;;
39214;SDS011;24932;51.746;14.334;2023-08-06T09:52:40;8.4;;;6.4;;
39214;SDS011;24932;51.746;14.334;2023-08-06T09:56:40;6.9;;;6.3;;
39214;SDS011;24932;51.746;14.334;2023-08-06T10:00:40;6.97;;;6.28;;
39214;SDS011;24932;51.746;14.334;2023-08-06T10:04:42;7.0;;;6.3;;
39214;SDS011;24932;51.746;14.334;2023-08-06T10:08:40;7.95;;;7.15;;
39214;SDS011;24932;51.746;14.334;2023-08-06T10:12:41;7.8;;;7.0;;
39214;SDS011;24932;51.746;14.334;2023-08-06T10:16:41;7.57;;;6.72;;
39214;SDS011;24932;51.746;14.334;2023-08-06T10:20:39;8.48;;;7.03;;
39214;SDS011;24932;51.746;14.334;2023-08-06T10:24:48;8.0;;;7.2;;
39214;SDS011;24932;51.746;14.334;2023-08-06T10:28:40;7.93;;;7.05;;
39214;SDS011;24932;51.746;14.334;2023-08-06T10:32:48;8.98;;;7.78;;
39214;SDS011;24932;51.746;14.334;2023-08-06T10:36:40;8.2;;;7.4;;
39214;SDS011;24932;51.746;14.334;2023-08-06T10:40:42;10.93;;;8.15;;
39214;SDS011;24932;51.746;14.334;2023-08-06T10:44:43;9.82;;;8.07;;
39214;SDS011;24932;51.746;14.334;2023-08-06T10:48:41;8.9;;;7.82;;
39214;SDS011;24932;51.746;14.334;2023-08-06T10:52:40;9.85;;;7.72;;
39214;SDS011;24932;51.746;14.334;2023-08-06T10:56:39;9.05;;;5.97;;
39214;SDS011;24932;51.746;14.334;2023-08-06T11:00:41;8.48;;;7.22;;
39214;SDS011;24932;51.746;14.334;2023-08-06T11:04:40;7.15;;;6.53;;
39214;SDS011;24932;51.746;14.334;2023-08-06T11:08:46;10.3;;;6.87;;
39214;SDS011;24932;51.746;14.334;2023-08-06T11:12:40;5.45;;;4.37;;
39214;SDS011;24932;51.746;14.334;2023-08-06T11:16:40;6.5;;;5.9;;
39214;SDS011;24932;51.746;14.334;2023-08-06T11:20:39;5.12;;;4.5;;
39214;SDS011;24932;51.746;14.334;2023-08-06T11:24:40;6.65;;;4.65;;
39214;SDS011;24932;51.746;14.334;2023-08-06T11:28:41;5.82;;;5.3;;
39214;SDS011;24932;51.746;14.334;2023-08-06T11:32:47;9.27;;;5.95;;
39214;SDS011;24932;51.746;14.334;2023-08-06T11:36:40;5.22;;;4.72;;
39214;SDS011;24932;51.746;14.334;2023-08-06T11:40:40;8.43;;;6.1;;
39214;SDS011;24932;51.746;14.334;2023-08-06T11:44:41;5.65;;;5.0;;
39214;SDS011;24932;51.746;14.334;2023-08-06T11:48:54;5.95;;;5.25;;
39214;SDS011;24932;51.746;14.334;2023-08-06T11:52:39;6.2;;;5.28;;
39214;SDS011;24932;51.746;14.334;2023-08-06T11:56:40;6.22;;;4.68;;
39214;SDS011;24932;51.746;14.334;2023-08-06T12:00:41;5.03;;;4.62;;
39214;SDS011;24932;51.746;14.334;2023-08-06T12:05:13;5.12;;;4.18;;
39214;SDS011;24932;51.746;14.334;2023-08-06T12:08:40;6.45;;;3.7;;
39214;SDS011;24932;51.746;14.334;2023-08-06T12:12:41;5.1;;;4.07;;
39214;SDS011;24932;51.746;14.334;2023-08-06T12:16:40;5.62;;;4.8;;
39214;SDS011;24932;51.746;14.334;2023-08-06T12:20:40;4.5;;;4.1;;
39214;SDS011;24932;51.746;14.334;2023-08-06T12:24:41;5.68;;;3.87;;
39214;SDS011;24932;51.746;14.334;2023-08-06T12:28:40;5.2;;;4.7;;
39214;SDS011;24932;51.746;14.334;2023-08-06T12:32:40;5.95;;;5.37;;
39214;SDS011;24932;51.746;14.334;2023-08-06T12:36:40;5.62;;;5.12;;
39214;SDS011;24932;51.746;14.334;2023-08-06T12:40:43;8.27;;;6.68;;
39214;SDS011;24932;51.746;14.334;2023-08-06T12:44:40;8.18;;;6.9;;
39214;SDS011;24932;51.746;14.334;2023-08-06T12:48:40;6.45;;;5.85;;
39214;SDS011;24932;51.746;14.334;2023-08-06T12:52:40;6.65;;;5.6;;
39214;SDS011;24932;51.746;14.334;2023-08-06T12:56:40;7.5;;;6.72;;
39214;SDS011;24932;51.746;14.334;2023-08-06T13:00:41;10.48;;;8.48;;
39214;SDS011;24932;51.746;14.334;2023-08-06T13:04:40;9.52;;;7.97;;
39214;SDS011;24932;51.746;14.334;2023-08-06T13:08:40;11.48;;;9.68;;
39214;SDS011;24932;51.746;14.334;2023-08-06T13:12:40;9.45;;;8.55;;
39214;SDS011;24932;51.746;14.334;2023-08-06T13:16:40;11.15;;;10.02;;
39214;SDS011;24932;51.746;14.334;2023-08-06T13:20:39;12.07;;;10.15;;
39214;SDS011;24932;51.746;14.334;2023-08-06T13:24:40;11.8;;;9.52;;
39214;SDS011;24932;51.746;14.334;2023-08-06T13:28:40;10.18;;;7.68;;
39214;SDS011;24932;51.746;14.334;2023-08-06T13:32:41;12.57;;;8.18;;
39214;SDS011;24932;51.746;14.334;2023-08-06T13:36:40;8.68;;;7.35;;
39214;SDS011;24932;51.746;14.334;2023-08-06T13:40:39;8.82;;;7.35;;
39214;SDS011;24932;51.746;14.334;2023-08-06T13:44:40;7.32;;;5.37;;
39214;SDS011;24932;51.746;14.334;2023-08-06T13:48:41;7.5;;;5.28;;
39214;SDS011;24932;51.746;14.334;2023-08-06T13:52:40;6.8;;;4.8;;
39214;SDS011;24932;51.746;14.334;2023-08-06T13:56:40;0.98;;;0.73;;
39214;SDS011;24932;51.746;14.334;2023-08-06T14:00:40;0.0;;;0.0;;
39214;SDS011;24932;51.746;14.334;2023-08-06T14:04:39;0.0;;;0.0;;
39214;SDS011;24932;51.746;14.334;2023-08-06T14:08:40;0.3;;;0.3;;
39214;SDS011;24932;51.746;14.334;2023-08-06T14:12:40;0.0;;;0.0;;
39214;SDS011;24932;51.746;14.334;2023-08-06T14:16:40;0.0;;;0.0;;
39214;SDS011;24932;51.746;14.334;2023-08-06T14:20:40;0.1;;;0.1;;
39214;SDS011;24932;51.746;14.334;2023-08-06T14:24:40;0.0;;;0.0;;
39214;SDS011;24932;51.746;14.334;2023-08-06T14:28:40;0.0;;;0.0;;
39214;SDS011;24932;51.746;14.334;2023-08-06T14:32:40;0.0;;;0.0;;
39214;SDS011;24932;51.746;14.334;2023-08-06T14:36:40;0.05;;;0.05;;
39214;SDS011;24932;51.746;14.334;2023-08-06T14:40:40;0.0;;;0.0;;
39214;SDS011;24932;51.746;14.334;2023-08-06T14:44:40;0.0;;;0.0;;
39214;SDS011;24932;51.746;14.334;2023-08-06T14:48:40;0.1;;;0.1;;
39214;SDS011;24932;51.746;14.334;2023-08-06T14:52:40;0.0;;;0.0;;
39214;SDS011;24932;51.746;14.334;2023-08-06T14:56:40;0.0;;;0.0;;
39214;SDS011;24932;51.746;14.334;2023-08-06T15:00:40;0.0;;;0.0;;
39214;SDS011;24932;51.746;14.334;2023-08-06T15:04:41;0.0;;;0.0;;
39214;SDS011;24932;51.746;14.334;2023-08-06T15:08:40;0.05;;;0.05;;
39214;SDS011;24932;51.746;14.334;2023-08-06T15:12:40;0.0;;;0.0;;
39214;SDS011;24932;51.746;14.334;2023-08-06T15:16:40;4.72;;;3.67;;
39214;SDS011;24932;51.746;14.334;2023-08-06T15:20:41;5.37;;;4.87;;
39214;SDS011;24932;51.746;14.334;2023-08-06T15:24:40;7.75;;;7.0;;
39214;SDS011;24932;51.746;14.334;2023-08-06T15:28:40;8.1;;;7.2;;
39214;SDS011;24932;51.746;14.334;2023-08-06T15:32:41;10.85;;;7.93;;
39214;SDS011;24932;51.746;14.334;2023-08-06T15:36:40;9.4;;;7.47;;
39214;SDS011;24932;51.746;14.334;2023-08-06T15:40:41;6.32;;;5.72;;
39214;SDS011;24932;51.746;14.334;2023-08-06T15:44:40;7.97;;;6.4;;
39214;SDS011;24932;51.746;14.334;2023-08-06T15:48:41;6.97;;;6.37;;
39214;SDS011;24932;51.746;14.334;2023-08-06T15:52:40;12.18;;;6.93;;
39214;SDS011;24932;51.746;14.334;2023-08-06T15:56:40;7.8;;;6.95;;
39214;SDS011;24932;51.746;14.334;2023-08-06T16:00:40;8.05;;;7.35;;
39214;SDS011;24932;51.746;14.334;2023-08-06T16:04:41;10.25;;;7.18;;
39214;SDS011;24932;51.746;14.334;2023-08-06T16:08:40;11.07;;;8.95;;
39214;SDS011;24932;51.746;14.334;2023-08-06T16:12:40;14.13;;;8.8;;
39214;SDS011;24932;51.746;14.334;2023-08-06T16:16:41;10.93;;;9.82;;
39214;SDS011;24932;51.746;14.334;2023-08-06T16:20:41;9.93;;;9.02;;
39214;SDS011;24932;51.746;14.334;2023-08-06T16:24:40;11.93;;;8.93;;
39214;SDS011;24932;51.746;14.334;2023-08-06T16:28:40;11.73;;;9.2;;
39214;SDS011;24932;51.746;14.334;2023-08-06T16:32:41;10.38;;;9.27;;
39214;SDS011;24932;51.746;14.334;2023-08-06T16:36:40;12.73;;;8.4;;
39214;SDS011;24932;51.746;14.334;2023-08-06T16:40:40;9.2;;;8.4;;
39214;SDS011;24932;51.746;14.334;2023-08-06T16:44:40;10.88;;;9.6;;
39214;SDS011;24932;51.746;14.334;2023-08-06T16:48:41;9.3;;;8.5;;
39214;SDS011;24932;51.746;14.334;2023-08-06T16:52:40;12.73;;;10.27;;
39214;SDS011;24932;51.746;14.334;2023-08-06T16:56:40;9.5;;;8.6;;
39214;SDS011;24932;51.746;14.334;2023-08-06T17:00:39;12.05;;;8.68;;
39214;SDS011;24932;51.746;14.334;2023-08-06T17:04:43;8.57;;;7.78;;
39214;SDS011;24932;51.746;14.334;2023-08-06T17:08:40;8.4;;;7.6;;
39214;SDS011;24932;51.746;14.334;2023-08-06T17:12:40;9.1;;;7.2;;
39214;SDS011;24932;51.746;14.334;2023-08-06T17:16:40;8.38;;;6.2;;
39214;SDS011;24932;51.746;14.334;2023-08-06T17:20:40;7.93;;;6.25;;
39214;SDS011;24932;51.746;14.334;2023-08-06T17:24:42;7.15;;;6.45;;
39214;SDS011;24932;51.746;14.334;2023-08-06T17:28:40;9.8;;;5.25;;
39214;SDS011;24932;51.746;14.334;2023-08-06T17:32:41;6.22;;;5.55;;
39214;SDS011;24932;51.746;14.334;2023-08-06T17:36:40;5.65;;;5.12;;
39214;SDS011;24932;51.746;14.334;2023-08-06T17:40:40;5.28;;;4.78;;
39214;SDS011;24932;51.746;14.334;2023-08-06T17:44:40;5.3;;;4.8;;
39214;SDS011;24932;51.746;14.334;2023-08-06T17:48:40;5.85;;;4.82;;
39214;SDS011;24932;51.746;14.334;2023-08-06T17:52:39;5.78;;;5.25;;
39214;SDS011;24932;51.746;14.334;2023-08-06T17:56:40;6.15;;;5.05;;
39214;SDS011;24932;51.746;14.334;2023-08-06T18:00:40;5.15;;;4.7;;
39214;SDS011;24932;51.746;14.334;2023-08-06T18:04:40;5.97;;;5.37;;
39214;SDS011;24932;51.746;14.334;2023-08-06T18:08:41;6.03;;;4.47;;
39214;SDS011;24932;51.746;14.334;2023-08-06T18:12:40;11.48;;;4.8;;
39214;SDS011;24932;51.746;14.334;2023-08-06T18:16:40;4.95;;;4.15;;
39214;SDS011;24932;51.746;14.334;2023-08-06T18:20:40;7.55;;;4.62;;
39214;SDS011;24932;51.746;14.334;2023-08-06T18:24:41;7.65;;;4.53;;
39214;SDS011;24932;51.746;14.334;2023-08-06T18:28:40;5.8;;;3.92;;
39214;SDS011;24932;51.746;14.334;2023-08-06T18:32:41;5.95;;;4.68;;
39214;SDS011;24932;51.746;14.334;2023-08-06T18:36:40;5.22;;;4.72;;
39214;SDS011;24932;51.746;14.334;2023-08-06T18:40:39;7.32;;;4.87;;
39214;SDS011;24932;51.746;14.334;2023-08-06T18:44:40;5.93;;;5.32;;
39214;SDS011;24932;51.746;14.334;2023-08-06T18:48:40;6.37;;;5.78;;
39214;SDS011;24932;51.746;14.334;2023-08-06T18:52:44;14.0;;;6.05;;
39214;SDS011;24932;51.746;14.334;2023-08-06T18:56:40;8.98;;;7.25;;
39214;SDS011;24932;51.746;14.334;2023-08-06T19:00:40;10.5;;;7.45;;
39214;SDS011;24932;51.746;14.334;2023-08-06T19:04:40;13.55;;;7.15;;
39214;SDS011;24932;51.746;14.334;2023-08-06T19:08:40;8.57;;;7.1;;
39214;SDS011;24932;51.746;14.334;2023-08-06T19:12:40;11.7;;;7.82;;
39214;SDS011;24932;51.746;14.334;2023-08-06T19:16:40;8.6;;;7.45;;
39214;SDS011;24932;51.746;14.334;2023-08-06T19:20:40;8.05;;;7.22;;
39214;SDS011;24932;51.746;14.334;2023-08-06T19:24:39;9.05;;;7.12;;
39214;SDS011;24932;51.746;14.334;2023-08-06T19:28:40;11.75;;;7.47;;
39214;SDS011;24932;51.746;14.334;2023-08-06T19:32:40;8.18;;;7.47;;
39214;SDS011;24932;51.746;14.334;2023-08-06T19:36:40;8.6;;;7.65;;
39214;SDS011;24932;51.746;14.334;2023-08-06T19:40:40;10.5;;;7.82;;
39214;SDS011;24932;51.746;14.334;2023-08-06T19:44:40;8.9;;;7.3;;
39214;SDS011;24932;51.746;14.334;2023-08-06T19:48:40;10.75;;;9.55;;
39214;SDS011;24932;51.746;14.334;2023-08-06T19:52:40;18.58;;;9.3;;
39214;SDS011;24932;51.746;14.334;2023-08-06T19:56:40;9.02;;;8.1;;
39214;SDS011;24932;51.746;14.334;2023-08-06T20:00:41;11.98;;;7.65;;
39214;SDS011;24932;51.746;14.334;2023-08-06T20:04:40;9.55;;;7.2;;
39214;SDS011;24932;51.746;14.334;2023-08-06T20:08:40;7.07;;;5.87;;
39214;SDS011;24932;51.746;14.334;2023-08-06T20:12:41;9.73;;;6.45;;
39214;SDS011;24932;51.746;14.334;2023-08-06T20:16:40;7.87;;;6.28;;
39214;SDS011;24932;51.746;14.334;2023-08-06T20:20:40;9.23;;;6.05;;
39214;SDS011;24932;51.746;14.334;2023-08-06T20:24:40;6.82;;;6.03;;
39214;SDS011;24932;51.746;14.334;2023-08-06T20:28:40;8.4;;;5.9;;
39214;SDS011;24932;51.746;14.334;2023-08-06T20:32:41;9.77;;;5.95;;
39214;SDS011;24932;51.746;14.334;2023-08-06T20:36:40;12.1;;;7.0;;
39214;SDS011;24932;51.746;14.334;2023-08-06T20:40:40;10.23;;;5.85;;
39214;SDS011;24932;51.746;14.334;2023-08-06T20:44:40;6.6;;;5.57;;
39214;SDS011;24932;51.746;14.334;2023-08-06T20:48:40;7.85;;;5.68;;
39214;SDS011;24932;51.746;14.334;2023-08-06T20:52:40;9.27;;;6.0;;
39214;SDS011;24932;51.746;14.334;2023-08-06T20:56:40;10.18;;;6.18;;
39214;SDS011;24932;51.746;14.334;2023-08-06T21:00:41;7.7;;;6.35;;
39214;SDS011;24932;51.746;14.334;2023-08-06T21:04:40;7.0;;;6.3;;
39214;SDS011;24932;51.746;14.334;2023-08-06T21:08:40;8.45;;;6.68;;
39214;SDS011;24932;51.746;14.334;2023-08-06T21:12:40;9.65;;;6.5;;
39214;SDS011;24932;51.746;14.334;2023-08-06T21:16:40;8.63;;;6.93;;
39214;SDS011;24932;51.746;14.334;2023-08-06T21:20:40;13.07;;;7.53;;
39214;SDS011;24932;51.746;14.334;2023-08-06T21:24:40;9.32;;;7.45;;
39214;SDS011;24932;51.746;14.334;2023-08-06T21:28:40;8.9;;;7.12;;
39214;SDS011;24932;51.746;14.334;2023-08-06T21:32:40;7.75;;;6.93;;
39214;SDS011;24932;51.746;14.334;2023-08-06T21:36:40;10.43;;;6.97;;
39214;SDS011;24932;51.746;14.334;2023-08-06T21:40:40;10.93;;;7.43;;
39214;SDS011;24932;51.746;14.334;2023-08-06T21:44:41;14.4;;;8.55;;
39214;SDS011;24932;51.746;14.334;2023-08-06T21:48:41;11.55;;;6.72;;
39214;SDS011;24932;51.746;14.334;2023-08-06T21:52:40;12.02;;;8.7;;
39214;SDS011;24932;51.746;14.334;2023-08-06T21:56:40;9.85;;;7.1;;
39214;SDS011;24932;51.746;14.334;2023-08-06T22:00:40;11.25;;;7.72;;
39214;SDS011;24932;51.746;14.334;2023-08-06T22:04:40;14.77;;;8.55;;
39214;SDS011;24932;51.746;14.334;2023-08-06T22:08:40;12.65;;;9.02;;
39214;SDS011;24932;51.746;14.334;2023-08-06T22:12:40;10.2;;;7.3;;
39214;SDS011;24932;51.746;14.334;2023-08-06T22:16:40;8.27;;;6.55;;
39214;SDS011;24932;51.746;14.334;2023-08-06T22:20:41;11.85;;;6.5;;
39214;SDS011;24932;51.746;14.334;2023-08-06T22:24:41;7.43;;;6.65;;
39214;SDS011;24932;51.746;14.334;2023-08-06T22:29:00;8.5;;;6.9;;
39214;SDS011;24932;51.746;14.334;2023-08-06T22:32:40;7.55;;;6.1;;
39214;SDS011;24932;51.746;14.334;2023-08-06T22:36:40;8.23;;;6.85;;
39214;SDS011;24932;51.746;14.334;2023-08-06T22:40:39;8.95;;;6.2;;
39214;SDS011;24932;51.746;14.334;2023-08-06T22:44:41;7.85;;;6.57;;
39214;SDS011;24932;51.746;14.334;2023-08-06T22:48:40;6.97;;;6.18;;
39214;SDS011;24932;51.746;14.334;2023-08-06T22:52:40;7.82;;;6.75;;
39214;SDS011;24932;51.746;14.334;2023-08-06T22:56:40;9.02;;;7.1;;
39214;SDS011;24932;51.746;14.334;2023-08-06T23:00:40;10.7;;;7.0;;
39214;SDS011;24932;51.746;14.334;2023-08-06T23:04:40;11.73;;;6.97;;
39214;SDS011;24932;51.746;14.334;2023-08-06T23:08:40;14.4;;;5.93;;
39214;SDS011;24932;51.746;14.334;2023-08-06T23:12:40;13.38;;;5.9;;
39214;SDS011;24932;51.746;14.334;2023-08-06T23:16:39;16.98;;;5.37;;
39214;SDS011;24932;51.746;14.334;2023-08-06T23:20:39;27.25;;;6.03;;
39214;SDS011;24932;51.746;14.334;2023-08-06T23:24:40;19.25;;;6.05;;
39214;SDS011;24932;51.746;14.334;2023-08-06T23:28:40;21.65;;;6.87;;
39214;SDS011;24932;51.746;14.334;2023-08-06T23:32:40;13.05;;;8.07;;
39214;SDS011;24932;51.746;14.334;2023-08-06T23:36:40;14.13;;;7.7;;
39214;SDS011;24932;51.746;14.334;2023-08-06T23:40:40;16.17;;;8.02;;
39214;SDS011;24932;51.746;14.334;2023-08-06T23:44:40;14.75;;;8.68;;